KESC

Delta County Airport

Escanaba, Michigan, USA
METAR KESC 210356Z AUTO VRB05KT 10SM CLR 21/19 A2995 RMK AO2 SLP158 T02060189
Observed Flight Rules
Aug-21 @ 03:56 UTC (15 minutes ago) Visual Flight Rules
Wind Visibility Clouds
Variable at 5 knots 10 miles
  • Clear skies
Temperatures Readings
Current 21°C / 70°F
Dewpoint 19°C / 66°F
Humidity 88%
Altimeter 29.95" Hg
Pressure 1015.8 hPa
Elevation 187
METAR KESC 210356Z AUTO VRB05KT 10SM CLR 21/19 A2995 RMK AO2 SLP158 T02060189
Observed Flight Rules
Aug-21 @ 03:56 UTC
(15 minutes ago)
VFR
Wind Visibility
Variable at 5 knots 10 miles
Clouds
  • Clear skies
Temperature Dewpoint
21°C / 70°F 19°C / 66°F
Humidity Altimeter Pressure
88% 29.95" Hg 1015.8 hPa